»·PEaware :: SWA2280 KSAN-KTUS

SWA2280 :: KSAN-KTUS

FLIGHT INFORMATION

Flight Status: Arrived
Operator:
Southwest Airlines
More flights by this operator :: More flights under this callsign
Pilot: Carl C. (43578)
Aircraft: BOEING 737-800
(B738)
More flights by this aircraft type
Origin: KSAN San Diego Intl-Lindbergh
United States
Destination: KTUS Tucson Intl
United States
More flights between these airports :: More routes between these airports
Route: ZZOOO3 IPL J2 GBN DINGO5
File this flight plan on PilotEdge
Remarks: RMK / SIMBRIEF
Altitude:
(Current/Filed)
35,000ft
Speed:
(Current/Filed)
455kts
Departed: 15-Oct-23 11:26 AM
Arrived: 15-Oct-23 12:29 PM
Distance/Time
Traveled:
319nm/1:03
Distance/Time
To Go:
Arrived

Flight Plot

Page will automatically refresh every two minutes.

Flight plan parsing failed; only flown route is shown


Map Options




Map Legend


Flown Route
Filed Route
Departure Airport
Arrival Airport
Navaid (VOR, NDB)
Fix

Horizontal Profiles

Position Reports

Time Latitude Longitude Heading Altitude Ground
Speed
15-Oct-23 11:00 32.732553 -117.195478 314 18ft 0kts
15-Oct-23 11:01 32.732553 -117.195478 314 18ft 0kts
15-Oct-23 11:02 32.732553 -117.195478 314 37ft 0kts
15-Oct-23 11:03 32.732553 -117.195478 314 37ft 0kts
15-Oct-23 11:04 32.732553 -117.195478 314 37ft 0kts
15-Oct-23 11:05 32.732553 -117.195478 314 37ft 0kts
15-Oct-23 11:06 32.732553 -117.195478 314 37ft 0kts
15-Oct-23 11:07 32.732553 -117.195478 314 37ft 0kts
15-Oct-23 11:08 32.732553 -117.195478 314 37ft 0kts
15-Oct-23 11:09 32.732553 -117.195478 314 18ft 0kts
15-Oct-23 11:10 32.732553 -117.195478 314 18ft 0kts
15-Oct-23 11:11 32.732553 -117.195478 314 18ft 0kts
15-Oct-23 11:12 32.732553 -117.195478 314 18ft 0kts
15-Oct-23 11:13 32.732553 -117.195478 314 18ft 0kts
15-Oct-23 11:14 32.732434 -117.195152 233 19ft 2kts
15-Oct-23 11:15 32.732592 -117.194645 17 21ft 2kts
15-Oct-23 11:16 32.732373 -117.194781 30 19ft 0kts
15-Oct-23 11:17 32.732373 -117.194781 30 19ft 0kts
15-Oct-23 11:18 32.732819 -117.194471 30 21ft 4kts
15-Oct-23 11:19 32.733442 -117.193406 100 20ft 14kts
15-Oct-23 11:20 32.732529 -117.189628 106 22ft 10kts
15-Oct-23 11:21 32.731598 -117.185837 106 21ft 20kts
15-Oct-23 11:22 32.729873 -117.178712 106 15ft 21kts
15-Oct-23 11:23 32.729527 -117.176723 78 16ft 0kts
15-Oct-23 11:24 32.730302 -117.176174 287 18ft 3kts
15-Oct-23 11:25 32.738446 -117.208714 287 1010ft 165kts
15-Oct-23 11:26 32.753745 -117.272861 286 2937ft 245kts
15-Oct-23 11:27 32.757355 -117.353045 226 5763ft 259kts
15-Oct-23 11:28 32.696121 -117.343805 128 8704ft 260kts
15-Oct-23 11:29 32.650508 -117.274392 127 11518ft 273kts
15-Oct-23 11:30 32.625347 -117.186195 94 13146ft 326kts
15-Oct-23 11:31 32.615634 -117.068940 95 14679ft 370kts
15-Oct-23 11:32 32.604469 -116.945082 96 16843ft 384kts
15-Oct-23 11:33 32.621211 -116.818580 76 18833ft 398kts
15-Oct-23 11:34 32.639999 -116.688424 84 20745ft 407kts
15-Oct-23 11:35 32.651799 -116.553547 83 22633ft 415kts
15-Oct-23 11:36 32.664984 -116.415768 83 24260ft 425kts
15-Oct-23 11:37 32.678398 -116.275106 83 25702ft 433kts
15-Oct-23 11:38 32.691891 -116.131744 84 27108ft 440kts
15-Oct-23 11:39 32.705489 -115.985639 84 28344ft 449kts
15-Oct-23 11:40 32.719186 -115.837184 84 29515ft 457kts
15-Oct-23 11:41 32.732766 -115.688074 84 31160ft 449kts
15-Oct-23 11:42 32.745976 -115.541112 84 32622ft 444kts
15-Oct-23 11:43 32.752378 -115.396029 90 34012ft 438kts
15-Oct-23 11:44 32.754976 -115.251194 89 34901ft 440kts
15-Oct-23 11:45 32.758259 -115.104711 89 35092ft 445kts
15-Oct-23 11:46 32.761332 -114.959338 89 35078ft 437kts
15-Oct-23 11:47 32.764182 -114.815410 89 35060ft 436kts
15-Oct-23 11:48 32.766893 -114.670954 89 35069ft 438kts
15-Oct-23 11:49 32.769272 -114.525970 89 35076ft 440kts
15-Oct-23 11:50 32.771196 -114.380128 89 35089ft 442kts
15-Oct-23 11:51 32.773012 -114.233897 89 35070ft 443kts
15-Oct-23 11:52 32.774667 -114.087830 90 35052ft 442kts
15-Oct-23 11:53 32.779148 -113.942166 81 35044ft 441kts
15-Oct-23 11:54 32.800776 -113.798554 81 35036ft 440kts
15-Oct-23 11:56 32.821187 -113.655472 81 35035ft 440kts
15-Oct-23 11:57 32.841440 -113.512002 81 35032ft 440kts
15-Oct-23 11:58 32.861569 -113.368215 81 35029ft 440kts
15-Oct-23 11:59 32.881497 -113.224613 81 35030ft 441kts
15-Oct-23 12:00 32.901332 -113.080436 81 35041ft 442kts
15-Oct-23 12:01 32.921082 -112.935586 81 35052ft 444kts
15-Oct-23 12:02 32.940706 -112.790385 81 35065ft 445kts
15-Oct-23 12:03 32.946113 -112.645362 111 35060ft 441kts
15-Oct-23 12:04 32.894881 -112.513371 115 35056ft 441kts
15-Oct-23 12:05 32.843289 -112.380896 115 34837ft 433kts
15-Oct-23 12:06 32.792895 -112.250663 114 32252ft 437kts
15-Oct-23 12:07 32.741386 -112.118087 113 29230ft 445kts
15-Oct-23 12:08 32.688514 -111.982527 114 25558ft 459kts
15-Oct-23 12:09 32.635818 -111.847991 114 23140ft 443kts
15-Oct-23 12:10 32.584521 -111.717483 114 20608ft 429kts
15-Oct-23 12:11 32.529115 -111.596377 127 18939ft 400kts
15-Oct-23 12:12 32.460033 -111.505709 139 18763ft 345kts
15-Oct-23 12:13 32.386773 -111.432996 139 17328ft 342kts
15-Oct-23 12:14 32.314642 -111.359930 138 15756ft 337kts
15-Oct-23 12:15 32.244180 -111.288383 138 14313ft 331kts
15-Oct-23 12:16 32.174728 -111.217990 139 12835ft 325kts
15-Oct-23 12:17 32.109413 -111.151913 139 11475ft 294kts
15-Oct-23 12:18 32.048412 -111.090346 140 10301ft 277kts
15-Oct-23 12:19 31.990447 -111.031924 140 9614ft 272kts
15-Oct-23 12:20 31.937500 -110.978642 139 8536ft 229kts
15-Oct-23 12:20 31.899317 -110.934835 135 7759ft 238kts
15-Oct-23 12:22 31.887499 -110.861130 49 6823ft 213kts
15-Oct-23 12:23 31.929002 -110.812552 47 6405ft 206kts
15-Oct-23 12:24 31.972509 -110.778102 351 5726ft 185kts
15-Oct-23 12:24 32.006868 -110.811281 316 5068ft 195kts
15-Oct-23 12:25 32.041362 -110.851725 316 4349ft 160kts
15-Oct-23 12:27 32.077276 -110.893794 315 3522ft 150kts
15-Oct-23 12:28 32.105861 -110.927439 316 2643ft 139kts
15-Oct-23 12:28 32.114838 -110.936515 46 2619ft 0kts
15-Oct-23 12:29 32.115476 -110.936244 327 2621ft 11kts
15-Oct-23 12:30 32.118366 -110.938213 334 2612ft 8kts
15-Oct-23 12:31 32.118852 -110.937690 61 2613ft 0kts
15-Oct-23 12:32 32.118852 -110.937690 61 2613ft 0kts

Navigation Log

Ident Type
Flight plan parsing failed, navigation log unavailable